createdAt,value
2022-12-31T00:01:40.890Z,63.74
2022-12-31T00:04:08.275Z,63.68
2022-12-31T00:06:35.959Z,64.03
2022-12-31T00:09:05.704Z,63.81
2022-12-31T00:11:35.561Z,64.07
2022-12-31T00:14:03.304Z,64.34
2022-12-31T00:16:33.309Z,64.00
2022-12-31T00:19:01.099Z,63.78
2022-12-31T00:21:29.919Z,64.14
2022-12-31T00:23:57.343Z,63.90
2022-12-31T00:26:26.654Z,64.03
2022-12-31T00:28:56.297Z,63.67
2022-12-31T00:31:25.382Z,63.63
2022-12-31T00:33:55.858Z,63.65
2022-12-31T00:36:24.692Z,63.66
2022-12-31T00:38:55.176Z,63.44
2022-12-31T00:41:22.676Z,63.94
2022-12-31T00:43:51.106Z,63.66
2022-12-31T00:46:19.887Z,63.65
2022-12-31T00:48:47.503Z,63.72
2022-12-31T00:51:18.005Z,63.59
2022-12-31T00:53:45.533Z,63.43
2022-12-31T00:56:14.917Z,63.75
2022-12-31T00:58:42.622Z,63.68
2022-12-31T01:01:10.847Z,63.36
2022-12-31T01:03:41.396Z,63.30
2022-12-31T01:06:09.308Z,63.47
2022-12-31T01:08:36.955Z,63.41
2022-12-31T01:11:28.986Z,63.40
2022-12-31T01:13:58.764Z,63.31
2022-12-31T01:16:27.998Z,63.42
2022-12-31T01:18:58.824Z,63.27
2022-12-31T01:21:27.444Z,64.12
2022-12-31T01:23:54.981Z,63.58
2022-12-31T01:26:22.324Z,63.64
2022-12-31T01:28:52.557Z,63.56
2022-12-31T01:31:21.399Z,63.39
2022-12-31T01:33:49.098Z,63.57
2022-12-31T01:36:25.227Z,63.27
2022-12-31T01:38:53.659Z,63.68
2022-12-31T01:41:23.300Z,63.51
2022-12-31T01:43:56.004Z,63.54
2022-12-31T01:46:29.245Z,63.32
2022-12-31T01:49:00.687Z,63.58
2022-12-31T01:51:33.281Z,63.37
2022-12-31T01:54:02.825Z,63.42
2022-12-31T01:56:29.872Z,63.42
2022-12-31T01:58:59.581Z,63.52
2022-12-31T02:01:29.396Z,63.63
2022-12-31T02:03:57.694Z,63.63
2022-12-31T02:06:33.892Z,64.01
2022-12-31T02:09:01.324Z,63.78
2022-12-31T02:11:30.326Z,63.77
2022-12-31T02:14:00.500Z,64.00
2022-12-31T02:16:34.555Z,63.87
2022-12-31T02:19:26.709Z,63.95
2022-12-31T02:22:03.699Z,64.41
2022-12-31T02:25:05.854Z,64.36
2022-12-31T02:27:50.930Z,64.48
2022-12-31T02:30:20.620Z,64.63
2022-12-31T02:33:02.939Z,65.32
2022-12-31T02:35:33.336Z,64.74
2022-12-31T02:38:05.467Z,64.79
2022-12-31T02:40:39.348Z,64.53
2022-12-31T02:43:07.916Z,65.18
2022-12-31T02:45:43.455Z,64.63
2022-12-31T02:48:28.188Z,65.09
2022-12-31T02:51:06.423Z,65.14
2022-12-31T02:53:57.079Z,65.05
2022-12-31T02:56:30.813Z,65.13
2022-12-31T02:59:52.495Z,64.99
2022-12-31T03:02:26.629Z,64.99
2022-12-31T03:04:56.299Z,64.91
2022-12-31T03:07:29.336Z,65.39
2022-12-31T03:09:56.508Z,65.32
2022-12-31T03:12:45.436Z,64.96
2022-12-31T03:15:20.533Z,64.60
2022-12-31T03:17:54.647Z,64.99
2022-12-31T03:20:46.048Z,64.45
2022-12-31T03:23:16.917Z,64.41
2022-12-31T03:25:44.618Z,64.51
2022-12-31T03:28:13.828Z,64.91
2022-12-31T03:30:42.455Z,64.73
2022-12-31T03:33:11.008Z,65.04
2022-12-31T03:35:42.048Z,64.65
2022-12-31T03:38:09.553Z,64.75
2022-12-31T03:40:39.484Z,65.14
2022-12-31T03:43:06.934Z,64.89
2022-12-31T03:45:34.617Z,64.84
2022-12-31T03:48:02.155Z,64.86
2022-12-31T03:50:30.483Z,64.69
2022-12-31T03:52:57.890Z,64.75
2022-12-31T03:55:25.006Z,64.83
2022-12-31T03:57:52.405Z,65.03
2022-12-31T04:00:22.134Z,64.50
2022-12-31T04:02:51.011Z,64.71
2022-12-31T04:05:19.083Z,64.60
2022-12-31T04:07:48.377Z,64.39
2022-12-31T04:10:17.240Z,64.29
2022-12-31T04:12:44.270Z,64.04
2022-12-31T04:15:16.935Z,63.97
2022-12-31T04:17:44.259Z,63.75
2022-12-31T04:20:11.913Z,63.66
2022-12-31T04:22:39.418Z,63.57
2022-12-31T04:25:11.392Z,63.36
2022-12-31T04:27:40.014Z,63.16
2022-12-31T04:30:08.312Z,63.69
2022-12-31T04:32:35.788Z,63.41
2022-12-31T04:35:06.701Z,63.80
2022-12-31T04:37:36.112Z,63.98
2022-12-31T04:40:06.165Z,63.74
2022-12-31T04:42:36.338Z,63.46
2022-12-31T04:45:05.319Z,63.54
2022-12-31T04:47:32.648Z,63.73
2022-12-31T04:49:59.599Z,63.29
2022-12-31T04:52:26.787Z,63.45
2022-12-31T04:54:53.751Z,63.54
2022-12-31T04:57:21.094Z,63.61
2022-12-31T04:59:49.399Z,63.67
2022-12-31T05:02:16.666Z,63.57
2022-12-31T05:04:43.965Z,63.48
2022-12-31T05:07:11.122Z,63.69
2022-12-31T05:09:38.054Z,62.97
2022-12-31T05:12:07.971Z,62.45
2022-12-31T05:14:34.788Z,62.65
2022-12-31T05:17:03.485Z,62.90
2022-12-31T05:19:30.486Z,62.87
2022-12-31T05:22:18.009Z,62.96
2022-12-31T05:24:45.113Z,62.23
2022-12-31T05:27:13.528Z,62.38
2022-12-31T05:29:40.413Z,61.80
2022-12-31T05:32:08.958Z,62.07
2022-12-31T05:34:35.847Z,62.04
2022-12-31T05:37:03.140Z,62.57
2022-12-31T05:39:30.218Z,62.34
2022-12-31T05:41:57.383Z,62.28
2022-12-31T05:44:24.353Z,62.18
2022-12-31T05:46:51.633Z,62.13
2022-12-31T05:49:20.145Z,62.22
2022-12-31T05:51:47.366Z,62.14
2022-12-31T05:54:17.436Z,61.51
2022-12-31T05:56:44.837Z,61.77
2022-12-31T05:59:12.004Z,61.38
2022-12-31T06:01:39.356Z,61.54
2022-12-31T06:04:10.463Z,61.66
2022-12-31T06:06:39.262Z,61.58
2022-12-31T06:09:06.254Z,61.50
2022-12-31T06:11:35.238Z,61.44
2022-12-31T06:14:03.081Z,61.70
2022-12-31T06:16:31.088Z,61.67
2022-12-31T06:18:57.997Z,61.48
2022-12-31T06:21:25.289Z,61.25
2022-12-31T06:23:53.557Z,61.41
2022-12-31T06:26:23.590Z,61.75
2022-12-31T06:28:53.976Z,61.79
2022-12-31T06:31:21.342Z,61.64
2022-12-31T06:33:48.468Z,61.70
2022-12-31T06:36:16.561Z,61.95
2022-12-31T06:38:44.168Z,61.96
2022-12-31T06:41:16.822Z,62.38
2022-12-31T06:43:43.834Z,62.23
2022-12-31T06:46:13.033Z,62.08
2022-12-31T06:48:42.844Z,62.16
2022-12-31T06:51:16.942Z,62.30
2022-12-31T06:53:45.717Z,62.18
2022-12-31T06:56:20.049Z,62.24
2022-12-31T06:58:47.922Z,62.09
2022-12-31T07:01:37.179Z,62.26
2022-12-31T07:04:28.369Z,61.81
2022-12-31T07:07:03.759Z,61.82
2022-12-31T07:09:40.439Z,61.69
2022-12-31T07:12:20.014Z,61.86
2022-12-31T07:14:54.895Z,61.68
2022-12-31T07:17:35.106Z,61.72
2022-12-31T07:20:16.414Z,61.63
2022-12-31T07:22:44.196Z,61.40
2022-12-31T07:25:14.478Z,61.69
2022-12-31T07:28:16.987Z,61.70
2022-12-31T07:30:52.825Z,61.60
2022-12-31T07:33:38.212Z,60.84
2022-12-31T07:36:20.847Z,61.17
2022-12-31T07:38:55.088Z,61.16
2022-12-31T07:41:37.174Z,61.01
2022-12-31T07:44:16.101Z,61.33
2022-12-31T07:46:54.852Z,61.35
2022-12-31T07:49:25.289Z,61.53
2022-12-31T07:51:59.022Z,61.73
2022-12-31T07:54:29.606Z,61.83
2022-12-31T07:56:56.496Z,61.76
2022-12-31T07:59:40.037Z,61.73
2022-12-31T08:02:18.400Z,61.84
2022-12-31T08:04:54.472Z,61.71
2022-12-31T08:07:30.384Z,61.88
2022-12-31T08:10:04.014Z,61.62
2022-12-31T08:12:34.823Z,61.27
2022-12-31T08:15:12.194Z,65.67
2022-12-31T08:17:39.366Z,63.70
2022-12-31T08:20:07.678Z,63.91
2022-12-31T08:22:55.650Z,62.35
2022-12-31T08:25:30.156Z,61.06
2022-12-31T08:28:07.062Z,60.62
2022-12-31T08:30:44.096Z,57.99
2022-12-31T08:33:17.670Z,57.89
2022-12-31T08:36:00.345Z,57.84
2022-12-31T08:38:33.193Z,58.70
2022-12-31T08:41:09.378Z,58.90
2022-12-31T08:43:51.778Z,59.01
2022-12-31T08:46:28.209Z,58.62
2022-12-31T08:48:55.624Z,58.76
2022-12-31T08:51:29.768Z,58.71
2022-12-31T08:53:57.456Z,58.31
2022-12-31T08:56:30.647Z,58.17
2022-12-31T08:59:10.948Z,57.90
2022-12-31T09:02:02.017Z,57.72
2022-12-31T09:04:44.474Z,57.66
2022-12-31T09:07:22.954Z,57.70
2022-12-31T09:10:03.215Z,58.09
2022-12-31T09:12:37.989Z,57.97
2022-12-31T09:15:15.548Z,57.64
2022-12-31T09:17:46.367Z,57.63
2022-12-31T09:20:16.823Z,57.61
2022-12-31T09:22:55.636Z,57.74
2022-12-31T09:25:24.050Z,57.90
2022-12-31T09:28:06.111Z,57.55
2022-12-31T09:30:42.276Z,57.66
2022-12-31T09:33:16.711Z,57.70
2022-12-31T09:35:53.737Z,57.69
2022-12-31T09:38:28.698Z,58.09
2022-12-31T09:41:24.131Z,57.89
2022-12-31T09:44:29.763Z,57.33
2022-12-31T09:47:23.826Z,57.45
2022-12-31T09:50:39.230Z,57.71
2022-12-31T09:53:34.683Z,57.03
2022-12-31T09:56:10.992Z,56.89
2022-12-31T09:58:44.852Z,56.18
2022-12-31T10:01:32.280Z,55.85
2022-12-31T10:04:33.717Z,56.45
2022-12-31T10:07:15.871Z,56.06
2022-12-31T10:10:01.497Z,54.82
2022-12-31T10:12:55.262Z,55.34
2022-12-31T10:15:46.583Z,55.62
2022-12-31T10:18:29.197Z,55.44
2022-12-31T10:21:17.234Z,55.31
2022-12-31T10:24:05.144Z,54.67
2022-12-31T10:27:03.565Z,54.92
2022-12-31T10:29:42.096Z,54.61
2022-12-31T10:32:17.228Z,54.66
2022-12-31T10:35:13.729Z,55.09
2022-12-31T10:37:46.727Z,56.23
2022-12-31T10:40:29.397Z,54.76
2022-12-31T10:43:32.003Z,55.28
2022-12-31T10:46:36.168Z,52.48
2022-12-31T10:49:35.491Z,54.47
2022-12-31T10:52:58.317Z,53.40
2022-12-31T10:56:01.352Z,52.65
2022-12-31T10:59:14.555Z,52.36
2022-12-31T11:01:49.412Z,52.86
2022-12-31T11:05:05.481Z,53.38
2022-12-31T11:08:02.746Z,53.19
2022-12-31T11:10:56.871Z,52.84
2022-12-31T11:13:57.796Z,52.59
2022-12-31T11:16:44.876Z,52.33
2022-12-31T11:19:19.133Z,51.68
2022-12-31T11:21:57.277Z,51.89
2022-12-31T11:24:38.815Z,51.70
2022-12-31T11:27:23.347Z,52.21
2022-12-31T11:30:07.040Z,52.25
2022-12-31T11:32:48.376Z,52.93
2022-12-31T11:35:23.173Z,52.62
2022-12-31T11:37:54.082Z,52.39
2022-12-31T11:40:43.825Z,52.92
2022-12-31T11:43:25.985Z,52.98
2022-12-31T11:46:29.674Z,52.96
2022-12-31T11:49:13.291Z,53.34
2022-12-31T11:52:06.243Z,53.50
2022-12-31T11:54:54.147Z,53.25
2022-12-31T11:57:27.088Z,52.98
2022-12-31T11:59:58.889Z,53.18
2022-12-31T12:02:32.925Z,53.14
2022-12-31T12:05:08.479Z,53.52
2022-12-31T12:07:37.732Z,53.33
2022-12-31T12:10:17.669Z,53.46
2022-12-31T12:12:44.803Z,53.59
2022-12-31T12:15:20.421Z,53.63
2022-12-31T12:17:52.692Z,53.64
2022-12-31T12:20:26.648Z,53.55
2022-12-31T12:22:56.328Z,53.32
2022-12-31T12:25:25.715Z,53.47
2022-12-31T12:27:53.943Z,53.55
2022-12-31T12:30:24.779Z,53.36
2022-12-31T12:32:54.130Z,53.20
2022-12-31T12:35:26.106Z,53.53
2022-12-31T12:38:01.502Z,53.54
2022-12-31T12:40:33.619Z,53.72
2022-12-31T12:43:02.527Z,54.20
2022-12-31T12:45:42.323Z,54.02
2022-12-31T12:48:30.781Z,53.56
2022-12-31T12:50:58.301Z,53.47
2022-12-31T12:53:40.828Z,53.62
2022-12-31T12:56:18.934Z,53.85
2022-12-31T12:58:57.311Z,54.02
2022-12-31T13:01:36.781Z,54.15
2022-12-31T13:04:34.005Z,53.98
2022-12-31T13:07:21.896Z,54.22
2022-12-31T13:10:04.032Z,54.60
2022-12-31T13:13:13.699Z,54.75
2022-12-31T13:15:34.021Z,55.04
2022-12-31T13:18:13.210Z,55.33
2022-12-31T13:20:43.261Z,55.34
2022-12-31T13:23:23.295Z,55.47
2022-12-31T13:26:04.298Z,55.57
2022-12-31T13:28:33.388Z,55.72
2022-12-31T13:31:06.500Z,55.90
2022-12-31T13:33:41.045Z,56.20
2022-12-31T13:36:11.556Z,56.31
2022-12-31T13:38:42.083Z,56.65
2022-12-31T13:41:16.851Z,56.85
2022-12-31T13:43:54.561Z,56.72
2022-12-31T13:46:38.867Z,56.79
2022-12-31T13:49:16.342Z,56.82
2022-12-31T13:51:46.926Z,56.73
2022-12-31T13:54:30.747Z,56.71
2022-12-31T13:57:02.491Z,56.82
2022-12-31T13:59:35.335Z,56.76
2022-12-31T14:02:17.053Z,57.12
2022-12-31T14:04:50.902Z,57.20
2022-12-31T14:07:21.478Z,57.21
2022-12-31T14:09:49.092Z,57.11
2022-12-31T14:12:32.084Z,57.34
2022-12-31T14:15:09.252Z,57.51
2022-12-31T14:17:42.577Z,57.70
2022-12-31T14:20:23.466Z,57.57
2022-12-31T14:22:57.884Z,57.74
2022-12-31T14:25:29.307Z,57.60
2022-12-31T14:27:59.170Z,57.48
2022-12-31T14:30:30.978Z,57.79
2022-12-31T14:33:12.147Z,57.87
2022-12-31T14:35:52.222Z,58.13
2022-12-31T14:38:32.421Z,58.09
2022-12-31T14:41:12.655Z,58.21
2022-12-31T14:43:51.222Z,58.21
2022-12-31T14:46:31.375Z,58.15
2022-12-31T14:49:13.544Z,58.53
2022-12-31T14:51:42.265Z,58.32
2022-12-31T14:54:28.919Z,58.42
2022-12-31T14:56:58.309Z,58.44
2022-12-31T14:59:28.249Z,58.51
2022-12-31T15:01:56.948Z,58.58
2022-12-31T15:04:42.165Z,58.38
2022-12-31T15:07:18.930Z,58.41
2022-12-31T15:10:07.553Z,58.67
2022-12-31T15:12:49.361Z,58.80
2022-12-31T15:15:36.020Z,58.92
2022-12-31T15:18:33.844Z,59.08
2022-12-31T15:21:34.280Z,58.84
2022-12-31T15:24:13.848Z,58.77
2022-12-31T15:26:49.429Z,59.06
2022-12-31T15:29:27.128Z,58.82
2022-12-31T15:31:58.964Z,59.10
2022-12-31T15:34:30.962Z,58.84
2022-12-31T15:37:02.587Z,59.26
2022-12-31T15:39:42.021Z,59.27
2022-12-31T15:42:40.032Z,59.11
2022-12-31T15:45:18.664Z,59.17
2022-12-31T15:47:48.131Z,59.32
2022-12-31T15:50:18.254Z,58.92
2022-12-31T15:52:50.454Z,58.97
2022-12-31T15:55:26.408Z,58.88
2022-12-31T15:57:58.543Z,58.76
2022-12-31T16:00:34.839Z,58.75
2022-12-31T16:03:02.590Z,58.80
2022-12-31T16:05:35.199Z,58.77
2022-12-31T16:08:02.216Z,58.70
2022-12-31T16:10:44.204Z,58.89
2022-12-31T16:13:20.021Z,58.93
2022-12-31T16:15:51.854Z,58.87
2022-12-31T16:18:23.008Z,58.81
2022-12-31T16:20:51.942Z,58.96
2022-12-31T16:23:23.798Z,58.99
2022-12-31T16:25:55.159Z,58.91
2022-12-31T16:28:26.232Z,58.62
2022-12-31T16:30:59.153Z,58.51
2022-12-31T16:33:26.547Z,58.78
2022-12-31T16:35:59.427Z,59.04
2022-12-31T16:38:32.327Z,58.99
2022-12-31T16:41:18.543Z,58.76
2022-12-31T16:43:49.589Z,58.32
2022-12-31T16:46:20.668Z,58.54
2022-12-31T16:48:49.922Z,58.87
2022-12-31T16:51:24.290Z,58.82
2022-12-31T16:53:53.601Z,58.54
2022-12-31T16:56:30.143Z,58.26
2022-12-31T16:59:02.454Z,58.16
2022-12-31T17:01:32.543Z,58.12
2022-12-31T17:04:08.232Z,58.46
2022-12-31T17:06:39.330Z,58.46
2022-12-31T17:09:14.454Z,58.68
2022-12-31T17:11:50.685Z,58.80
2022-12-31T17:14:19.625Z,58.75
2022-12-31T17:17:02.230Z,59.15
2022-12-31T17:19:37.766Z,59.17
2022-12-31T17:22:11.371Z,59.10
2022-12-31T17:24:40.500Z,58.85
2022-12-31T17:27:10.622Z,58.92
2022-12-31T17:29:45.940Z,58.82
2022-12-31T17:32:35.763Z,59.00
2022-12-31T17:35:27.509Z,58.98
2022-12-31T17:37:54.801Z,59.05
2022-12-31T17:40:52.617Z,59.18
2022-12-31T17:43:23.703Z,59.07
2022-12-31T17:45:52.829Z,59.12
2022-12-31T17:48:23.112Z,58.86
2022-12-31T17:50:51.887Z,58.91
2022-12-31T17:53:19.709Z,58.79
2022-12-31T17:55:49.702Z,58.95
2022-12-31T17:58:29.251Z,59.22
2022-12-31T18:00:58.893Z,58.89
2022-12-31T18:03:31.248Z,58.93
2022-12-31T18:05:58.222Z,58.68
2022-12-31T18:08:25.430Z,58.74
2022-12-31T18:10:55.227Z,58.33
2022-12-31T18:13:23.951Z,58.81
2022-12-31T18:15:52.875Z,58.92
2022-12-31T18:18:26.328Z,59.01
2022-12-31T18:20:56.602Z,58.91
2022-12-31T18:23:28.126Z,58.74
2022-12-31T18:25:57.370Z,58.56
2022-12-31T18:28:27.016Z,58.56
2022-12-31T18:30:54.043Z,58.54
2022-12-31T18:33:25.007Z,58.28
2022-12-31T18:36:09.510Z,58.15
2022-12-31T18:38:38.028Z,57.93
2022-12-31T18:41:06.266Z,58.08
2022-12-31T18:43:33.505Z,58.22
2022-12-31T18:46:00.551Z,58.00
2022-12-31T18:48:37.242Z,57.84
2022-12-31T18:51:10.168Z,57.90
2022-12-31T18:53:44.459Z,58.06
2022-12-31T18:56:17.910Z,57.50
2022-12-31T18:58:48.496Z,57.66
2022-12-31T19:01:29.338Z,57.56
2022-12-31T19:04:00.727Z,57.78
2022-12-31T19:06:33.033Z,57.68
2022-12-31T19:09:01.173Z,57.95
2022-12-31T19:11:28.433Z,57.77
2022-12-31T19:13:57.456Z,57.86
2022-12-31T19:16:24.695Z,57.76
2022-12-31T19:18:54.118Z,57.75
2022-12-31T19:21:23.761Z,57.90
2022-12-31T19:23:51.541Z,57.95
2022-12-31T19:26:25.279Z,57.65
2022-12-31T19:28:55.711Z,57.97
2022-12-31T19:31:22.626Z,57.85
2022-12-31T19:33:52.401Z,57.81
2022-12-31T19:36:22.061Z,57.99
2022-12-31T19:38:49.304Z,58.66
2022-12-31T19:41:18.501Z,58.55
2022-12-31T19:43:48.789Z,58.50
2022-12-31T19:46:17.285Z,59.01
2022-12-31T19:48:45.494Z,58.73
2022-12-31T19:51:16.625Z,58.93
2022-12-31T19:53:46.025Z,58.99
2022-12-31T19:56:14.585Z,59.23
2022-12-31T19:58:44.835Z,59.19
2022-12-31T20:01:21.913Z,59.06
2022-12-31T20:03:52.109Z,59.37
2022-12-31T20:06:22.003Z,59.93
2022-12-31T20:08:53.044Z,60.00
2022-12-31T20:11:23.840Z,59.92
2022-12-31T20:13:56.487Z,60.29
2022-12-31T20:16:26.998Z,60.12
2022-12-31T20:18:54.463Z,60.58
2022-12-31T20:21:23.477Z,60.29
2022-12-31T20:23:53.760Z,60.69
2022-12-31T20:26:22.453Z,61.00
2022-12-31T20:28:49.686Z,61.43
2022-12-31T20:31:18.697Z,61.36
2022-12-31T20:33:46.466Z,61.61
2022-12-31T20:36:14.924Z,61.74
2022-12-31T20:38:43.374Z,61.42
2022-12-31T20:41:13.444Z,61.75
2022-12-31T20:43:41.154Z,61.68
2022-12-31T20:46:15.636Z,61.67
2022-12-31T20:48:46.522Z,61.14
2022-12-31T20:51:16.379Z,60.95
2022-12-31T20:53:46.687Z,61.16
2022-12-31T20:56:15.700Z,61.15
2022-12-31T20:58:44.969Z,61.33
2022-12-31T21:01:12.555Z,61.58
2022-12-31T21:06:31.022Z,61.45
2022-12-31T21:09:00.450Z,61.44
2022-12-31T21:11:50.509Z,61.40
2022-12-31T21:14:20.265Z,61.69
2022-12-31T21:16:47.232Z,61.83
2022-12-31T21:19:16.507Z,61.84
2022-12-31T21:21:43.309Z,61.85
2022-12-31T21:24:11.478Z,61.96
2022-12-31T21:26:39.866Z,62.13
2022-12-31T21:29:07.100Z,62.22
2022-12-31T21:31:36.491Z,62.53
2022-12-31T21:34:06.737Z,62.50
2022-12-31T21:36:33.660Z,62.69
2022-12-31T21:39:01.025Z,62.67
2022-12-31T21:41:46.667Z,62.63
2022-12-31T21:44:17.498Z,62.47
2022-12-31T21:47:15.762Z,62.34
2022-12-31T21:49:31.375Z,62.44
2022-12-31T21:52:16.931Z,62.43
2022-12-31T21:55:02.984Z,62.80
2022-12-31T21:57:29.864Z,62.83
2022-12-31T22:00:41.117Z,62.73
2022-12-31T22:03:29.773Z,62.74
2022-12-31T22:06:00.010Z,62.97
2022-12-31T22:08:32.622Z,62.97
2022-12-31T22:11:04.908Z,62.82
2022-12-31T22:13:35.279Z,62.97
2022-12-31T22:16:06.066Z,63.13
2022-12-31T22:18:35.538Z,63.36
2022-12-31T22:21:13.788Z,63.42
2022-12-31T22:23:46.098Z,63.72
2022-12-31T22:26:15.757Z,63.88
2022-12-31T22:28:44.038Z,64.08
2022-12-31T22:31:15.843Z,64.29
2022-12-31T22:33:43.149Z,64.23
2022-12-31T22:36:14.305Z,64.53
2022-12-31T22:38:43.584Z,64.54
2022-12-31T22:41:13.529Z,64.54
2022-12-31T22:43:48.295Z,64.35
2022-12-31T22:46:19.293Z,64.44
2022-12-31T22:48:49.459Z,64.47
2022-12-31T22:51:18.784Z,64.07
2022-12-31T22:53:48.512Z,64.27
2022-12-31T22:56:18.401Z,64.32
2022-12-31T22:58:52.152Z,64.51
2022-12-31T23:01:22.910Z,64.45
2022-12-31T23:03:54.449Z,64.35
2022-12-31T23:06:23.555Z,63.95
2022-12-31T23:09:11.551Z,63.93
2022-12-31T23:11:43.244Z,64.03
2022-12-31T23:14:35.936Z,64.34
2022-12-31T23:17:30.279Z,64.51
2022-12-31T23:20:17.465Z,64.47
2022-12-31T23:23:05.764Z,64.92
2022-12-31T23:25:33.357Z,64.83
2022-12-31T23:28:01.593Z,65.59
2022-12-31T23:30:34.572Z,65.25
2022-12-31T23:33:05.168Z,65.19
2022-12-31T23:35:32.032Z,65.17
2022-12-31T23:38:04.774Z,65.29
2022-12-31T23:40:34.473Z,64.86
2022-12-31T23:43:20.021Z,65.15
2022-12-31T23:45:47.872Z,64.83
2022-12-31T23:48:21.326Z,65.55
2022-12-31T23:50:52.951Z,65.48
2022-12-31T23:53:21.638Z,65.57
2022-12-31T23:55:48.522Z,65.63
2022-12-31T23:58:16.456Z,65.60
